Time;durP1;ratioP1;P1;durP2;ratioP2;P2;SDS_P1;SDS_P2;PMS_P1;PMS_P2;Temp;Humidity;BMP_temperature;BMP_pressure;BME280_temperature;BME280_humidity;BME280_pressure;Samples;Min_cycle;Max_cycle;Signal;HPM_P1;HPM_P2
2022/11/28 00:01:30;;;;;;;5.50;3.33;;;;;;;5.05;100.00;98612.09;4986841;28;20030;-66
2022/11/28 00:03:55;;;;;;;8.38;3.97;;;;;;;5.05;100.00;98616.63;4983938;28;20395;-67
2022/11/28 00:06:21;;;;;;;7.03;3.45;;;;;;;4.99;100.00;98623.50;5003670;28;20038;-67
2022/11/28 00:08:47;;;;;;;5.55;3.20;;;;;;;5.07;100.00;98608.41;4985140;28;20034;-67
2022/11/28 00:11:15;;;;;;;6.47;3.47;;;;;;;5.02;100.00;98609.75;4989420;28;20042;-67
2022/11/28 00:13:41;;;;;;;5.88;3.75;;;;;;;4.95;100.00;98614.16;4988860;28;20030;-66
2022/11/28 00:16:08;;;;;;;6.43;3.90;;;;;;;4.96;100.00;98628.41;4991279;28;20029;-67
2022/11/28 00:18:34;;;;;;;7.07;3.92;;;;;;;4.77;100.00;98624.25;4990338;28;20077;-66
2022/11/28 00:21:07;;;;;;;10.55;3.55;;;;;;;4.76;100.00;98638.66;4992721;28;20030;-66
2022/11/28 00:23:33;;;;;;;5.25;3.22;;;;;;;4.76;100.00;98630.59;4990077;28;20054;-67
2022/11/28 00:26:24;;;;;;;7.30;3.72;;;;;;;4.69;100.00;98624.25;4991661;28;20061;-67
2022/11/28 00:28:49;;;;;;;6.95;3.63;;;;;;;4.65;100.00;98617.56;4989061;28;20522;-66
2022/11/28 00:31:21;;;;;;;6.25;3.78;;;;;;;4.79;100.00;98615.03;4999753;28;20034;-66
2022/11/28 00:33:47;;;;;;;5.43;3.05;;;;;;;4.69;100.00;98626.94;4991135;28;20045;-66
2022/11/28 00:36:12;;;;;;;6.68;3.50;;;;;;;4.73;100.00;98636.31;4996267;28;20406;-67
2022/11/28 00:38:38;;;;;;;6.35;3.25;;;;;;;4.70;100.00;98628.63;4989642;28;20097;-67
2022/11/28 00:41:09;;;;;;;5.57;3.47;;;;;;;4.62;100.00;98634.81;4998986;28;20033;-67
2022/11/28 00:43:35;;;;;;;5.13;2.95;;;;;;;4.57;100.00;98624.59;5000263;28;20049;-66
2022/11/28 00:46:01;;;;;;;7.18;3.63;;;;;;;4.51;100.00;98629.81;4990468;28;20467;-66
2022/11/28 00:48:27;;;;;;;5.30;3.15;;;;;;;4.47;100.00;98633.84;5009685;28;20117;-67
2022/11/28 00:50:54;;;;;;;5.95;3.67;;;;;;;4.44;100.00;98637.69;4989247;28;20152;-67
2022/11/28 00:53:20;;;;;;;7.75;3.92;;;;;;;4.49;100.00;98638.00;4990972;28;20038;-67
2022/11/28 00:55:46;;;;;;;6.55;4.05;;;;;;;4.45;100.00;98641.19;4992907;28;20042;-66
2022/11/28 00:58:11;;;;;;;6.72;3.72;;;;;;;4.43;100.00;98636.03;4985607;28;20113;-67
2022/11/28 01:00:37;;;;;;;5.70;3.63;;;;;;;4.35;100.00;98611.94;4987581;28;20023;-66
2022/11/28 01:03:03;;;;;;;5.60;3.30;;;;;;;4.43;100.00;98625.31;4993768;28;20467;-67
2022/11/28 01:05:29;;;;;;;7.28;3.83;;;;;;;4.42;100.00;98623.63;4991348;28;20513;-66
2022/11/28 01:07:54;;;;;;;6.75;3.90;;;;;;;4.43;100.00;98621.75;4993874;28;20030;-67
2022/11/28 01:10:20;;;;;;;7.63;3.97;;;;;;;4.43;100.00;98624.44;4991774;28;20080;-67
2022/11/28 01:12:45;;;;;;;7.68;4.15;;;;;;;4.42;100.00;98620.94;4986142;28;20466;-67
2022/11/28 01:15:12;;;;;;;4.95;3.17;;;;;;;4.37;100.00;98610.72;4986305;28;20026;-66
2022/11/28 01:17:38;;;;;;;6.93;3.67;;;;;;;4.32;100.00;98613.09;4990227;28;20410;-67
2022/11/28 01:20:06;;;;;;;6.43;3.85;;;;;;;4.28;100.00;98610.91;4990652;28;20033;-66
2022/11/28 01:22:32;;;;;;;6.45;3.63;;;;;;;4.25;100.00;98603.22;5006937;28;20359;-66
2022/11/28 01:24:57;;;;;;;7.63;4.10;;;;;;;4.20;100.00;98603.72;4991718;28;20028;-67
2022/11/28 01:27:23;;;;;;;7.35;4.50;;;;;;;4.10;100.00;98595.84;4991468;28;20034;-67
2022/11/28 01:29:48;;;;;;;8.05;4.80;;;;;;;4.04;100.00;98591.16;4991267;28;20129;-67
2022/11/28 01:32:14;;;;;;;6.38;3.88;;;;;;;4.00;100.00;98588.97;5000100;28;20493;-67
2022/11/28 01:34:40;;;;;;;8.52;4.25;;;;;;;3.98;100.00;98585.63;5002815;28;20023;-67
2022/11/28 01:37:05;;;;;;;8.77;4.90;;;;;;;3.94;100.00;98572.59;4986257;28;20034;-67
2022/11/28 01:39:31;;;;;;;8.55;4.25;;;;;;;3.98;100.00;98574.91;4991665;28;20552;-67
2022/11/28 01:41:56;;;;;;;38.33;15.00;;;;;;;4.05;100.00;98583.97;4995427;28;20117;-67
2022/11/28 01:44:21;;;;;;;31.35;11.30;;;;;;;4.10;100.00;98582.47;4989160;28;20061;-67
2022/11/28 01:46:53;;;;;;;19.73;8.02;;;;;;;4.08;100.00;98591.66;4990708;28;20084;-67
2022/11/28 01:49:28;;;;;;;10.32;5.57;;;;;;;4.07;100.00;98590.81;4985437;28;20081;-67
2022/11/28 01:51:58;;;;;;;14.35;5.88;;;;;;;4.08;100.00;98600.53;4993716;28;20337;-66
2022/11/28 01:54:26;;;;;;;8.63;4.72;;;;;;;4.11;100.00;98597.53;4992018;28;20034;-67
2022/11/28 01:56:56;;;;;;;8.23;4.35;;;;;;;4.02;100.00;98579.78;5001989;28;20030;-66
2022/11/28 01:59:25;;;;;;;6.85;4.10;;;;;;;3.98;100.00;98589.13;4989894;28;20092;-67
2022/11/28 02:01:51;;;;;;;9.50;4.40;;;;;;;3.90;100.00;98583.78;4990742;28;20033;-67
2022/11/28 02:04:17;;;;;;;8.30;4.55;;;;;;;3.88;100.00;98580.47;4993002;28;20037;-67
2022/11/28 02:06:42;;;;;;;7.03;3.70;;;;;;;3.89;100.00;98576.78;4990584;28;20075;-67
2022/11/28 02:09:13;;;;;;;8.77;4.82;;;;;;;3.87;100.00;98570.75;4989666;28;20033;-67
2022/11/28 02:15:17;;;;;;;6.25;3.63;;;;;;;3.84;100.00;98576.44;4987072;28;20029;-67
2022/11/28 02:17:49;;;;;;;7.20;4.28;;;;;;;3.91;100.00;98575.59;4992229;28;20026;-67
2022/11/28 02:21:02;;;;;;;6.88;3.70;;;;;;;3.87;100.00;98554.69;5013885;28;20099;-67
2022/11/28 02:23:57;;;;;;;6.57;3.60;;;;;;;3.92;100.00;98560.38;4979946;28;20427;-67
2022/11/28 02:26:42;;;;;;;4.75;2.95;;;;;;;3.93;100.00;98535.31;4985513;28;20054;-67
2022/11/28 02:29:07;;;;;;;5.45;3.47;;;;;;;3.93;100.00;98529.94;4988257;28;20475;-67
2022/11/28 02:32:17;;;;;;;8.02;3.60;;;;;;;3.94;100.00;98523.56;4994124;28;20037;-67
2022/11/28 02:34:45;;;;;;;5.95;2.97;;;;;;;3.97;100.00;98512.53;4955196;28;20470;-67
2022/11/28 02:37:19;;;;;;;6.45;4.00;;;;;;;4.00;100.00;98497.97;4983635;28;20042;-67
2022/11/28 02:39:59;;;;;;;4.70;3.63;;;;;;;4.09;100.00;98507.69;4985245;28;20034;-66
2022/11/28 02:42:39;;;;;;;7.13;4.10;;;;;;;4.06;100.00;98502.63;4984593;28;20046;-67
2022/11/28 02:45:15;;;;;;;6.15;3.67;;;;;;;4.02;100.00;98502.16;4982481;28;20117;-66
2022/11/28 02:47:53;;;;;;;7.93;3.80;;;;;;;3.99;100.00;98497.16;4991166;28;20034;-66
2022/11/28 02:50:25;;;;;;;4.72;3.22;;;;;;;4.05;100.00;98491.09;4991998;28;20018;-67
2022/11/28 02:53:05;;;;;;;6.30;3.30;;;;;;;4.23;100.00;98455.28;4992048;28;20018;-68
2022/11/28 02:55:31;;;;;;;5.43;3.38;;;;;;;4.43;100.00;98448.53;4988359;28;20085;-68
2022/11/28 02:57:56;;;;;;;5.53;2.80;;;;;;;4.46;100.00;98472.28;4991831;28;20034;-67
2022/11/28 03:00:25;;;;;;;7.32;3.65;;;;;;;4.52;100.00;98501.03;4985165;28;20070;-68
2022/11/28 03:03:11;;;;;;;6.63;3.75;;;;;;;4.48;100.00;98493.50;4990222;28;20044;-68
2022/11/28 03:05:45;;;;;;;5.15;3.13;;;;;;;4.37;100.00;98487.50;5001987;28;20375;-67
2022/11/28 03:08:55;;;;;;;6.20;3.22;;;;;;;4.23;100.00;98506.16;4988853;28;20089;-68
2022/11/28 03:11:48;;;;;;;5.35;3.20;;;;;;;4.10;100.00;98488.75;4977877;28;20042;-67
2022/11/28 03:14:42;;;;;;;5.10;2.97;;;;;;;4.06;100.00;98486.56;4993578;28;20089;-66
2022/11/28 03:17:13;;;;;;;6.25;3.58;;;;;;;4.00;100.00;98469.38;4987160;28;20026;-67
2022/11/28 03:19:43;;;;;;;8.07;3.90;;;;;;;3.97;100.00;98474.22;4995253;28;20022;-67
2022/11/28 03:22:11;;;;;;;;;;;;;;;4.00;100.00;98466.69;4998709;28;20022;-66
2022/11/28 03:24:43;;;;;;;4.78;2.90;;;;;;;4.13;100.00;98480.38;4997789;28;19921;-66
2022/11/28 03:27:39;;;;;;;6.25;3.42;;;;;;;4.16;100.00;98482.72;5004621;28;20034;-67
2022/11/28 03:30:23;;;;;;;6.50;3.70;;;;;;;4.24;100.00;98489.88;4984528;28;20070;-67
2022/11/28 03:32:53;;;;;;;7.38;3.35;;;;;;;4.23;100.00;98500.78;4994839;28;20558;-67
2022/11/28 03:35:23;;;;;;;5.22;3.50;;;;;;;4.12;100.00;98492.09;4996894;28;21012;-67
2022/11/28 03:37:59;;;;;;;5.40;3.10;;;;;;;4.07;100.00;98497.13;5005326;28;20022;-67
2022/11/28 03:40:32;;;;;;;5.32;3.58;;;;;;;3.93;100.00;98482.59;4989521;28;20106;-67
2022/11/28 03:43:02;;;;;;;4.95;3.30;;;;;;;3.79;100.00;98495.81;4989812;28;20080;-67
2022/11/28 03:45:34;;;;;;;8.55;3.65;;;;;;;3.76;100.00;98493.47;4989674;28;20037;-67
2022/11/28 03:48:05;;;;;;;6.38;3.00;;;;;;;3.78;100.00;98496.81;4984892;28;20034;-67
2022/11/28 03:50:36;;;;;;;5.97;3.60;;;;;;;3.79;100.00;98479.75;4977854;28;20023;-67
2022/11/28 03:53:11;;;;;;;5.13;3.35;;;;;;;3.78;100.00;98470.06;4993717;28;20030;-67
2022/11/28 03:55:47;;;;;;;5.72;3.22;;;;;;;3.82;100.00;98458.84;4993564;28;20030;-67
2022/11/28 03:58:34;;;;;;;4.72;2.85;;;;;;;3.85;100.00;98458.53;4998801;28;20168;-68
2022/11/28 04:01:14;;;;;;;10.23;3.97;;;;;;;3.88;100.00;98452.84;4996446;28;20072;-67
2022/11/28 04:03:50;;;;;;;5.43;3.50;;;;;;;3.93;100.00;98455.00;4990850;28;20030;-67
2022/11/28 04:06:24;;;;;;;5.63;3.10;;;;;;;4.09;100.00;98459.50;4998496;28;20050;-68
2022/11/28 04:09:11;;;;;;;6.07;3.28;;;;;;;3.97;100.00;98450.13;5001422;28;20125;-67
2022/11/28 04:11:43;;;;;;;5.78;3.50;;;;;;;4.00;100.00;98444.44;4989319;28;20048;-67
2022/11/28 04:14:22;;;;;;;6.72;3.70;;;;;;;3.95;100.00;98447.63;4993977;28;20144;-66
2022/11/28 04:17:04;;;;;;;5.43;3.15;;;;;;;3.87;100.00;98451.16;4994571;28;20026;-67
2022/11/28 04:19:37;;;;;;;6.03;3.22;;;;;;;3.81;100.00;98465.22;5006332;28;20092;-67
2022/11/28 04:22:11;;;;;;;7.47;3.25;;;;;;;3.78;100.00;98462.03;4989293;28;20109;-67
2022/11/28 04:24:41;;;;;;;5.97;3.30;;;;;;;3.77;100.00;98452.31;4989693;28;20442;-67
2022/11/28 04:27:11;;;;;;;4.57;3.10;;;;;;;3.69;100.00;98434.44;4990913;28;20042;-67
2022/11/28 04:29:43;;;;;;;5.45;3.20;;;;;;;3.74;100.00;98451.66;4994008;28;20030;-67
2022/11/28 04:32:11;;;;;;;5.47;3.13;;;;;;;3.75;100.00;98460.53;4994928;28;20092;-67
2022/11/28 04:34:41;;;;;;;6.80;3.35;;;;;;;3.83;100.00;98465.06;4994710;28;20029;-67
2022/11/28 04:37:08;;;;;;;6.50;3.22;;;;;;;3.84;100.00;98451.50;4988572;28;20030;-67
2022/11/28 04:39:36;;;;;;;4.60;3.17;;;;;;;3.84;100.00;98456.84;4989777;28;20026;-67
2022/11/28 04:42:09;;;;;;;6.10;3.75;;;;;;;3.91;100.00;98463.19;4993736;28;20123;-67
2022/11/28 04:44:54;;;;;;;5.85;3.72;;;;;;;3.92;100.00;98459.50;4990548;28;20030;-66
2022/11/28 04:47:21;;;;;;;7.80;3.50;;;;;;;3.91;100.00;98460.50;4989618;28;20805;-67
2022/11/28 04:49:46;;;;;;;4.78;2.67;;;;;;;3.89;100.00;98451.81;4993037;28;20038;-67
2022/11/28 04:52:26;;;;;;;5.78;3.28;;;;;;;3.88;100.00;98457.34;4979632;28;20390;-66
2022/11/28 04:55:16;;;;;;;6.78;3.13;;;;;;;3.85;100.00;98460.34;4990043;28;20029;-67
2022/11/28 04:57:46;;;;;;;5.68;3.17;;;;;;;3.80;100.00;98460.00;4982986;28;20124;-68
2022/11/28 05:00:16;;;;;;;8.02;3.22;;;;;;;3.73;100.00;98458.03;5004693;28;20026;-67
2022/11/28 05:02:44;;;;;;;5.63;3.15;;;;;;;3.66;100.00;98453.50;4986764;28;20080;-67
2022/11/28 05:05:15;;;;;;;5.80;3.40;;;;;;;3.66;100.00;98449.00;4991333;28;20037;-67
2022/11/28 05:07:40;;;;;;;6.93;3.15;;;;;;;3.72;100.00;98432.28;4984616;28;20525;-66
2022/11/28 05:10:07;;;;;;;5.43;2.88;;;;;;;3.81;100.00;98440.28;4987198;28;20035;-66
2022/11/28 05:12:33;;;;;;;8.15;3.63;;;;;;;3.84;100.00;98431.94;4992598;28;20498;-66
2022/11/28 05:15:00;;;;;;;5.68;3.55;;;;;;;3.84;100.00;98447.97;4987427;28;20050;-67
2022/11/28 05:17:26;;;;;;;5.43;3.35;;;;;;;3.81;100.00;98451.81;4992052;28;20041;-66
2022/11/28 05:19:51;;;;;;;6.63;3.60;;;;;;;3.81;100.00;98445.66;4995708;28;20034;-66
2022/11/28 05:22:16;;;;;;;6.13;3.55;;;;;;;3.70;100.00;98433.44;4994050;28;20470;-66
2022/11/28 05:24:42;;;;;;;6.00;3.55;;;;;;;3.72;100.00;98447.47;4993349;28;20061;-66
2022/11/28 05:27:10;;;;;;;4.78;3.08;;;;;;;3.69;100.00;98447.81;4998926;28;20029;-66
2022/11/28 05:29:46;;;;;;;5.43;3.20;;;;;;;3.64;100.00;98453.69;4993437;28;20030;-66
2022/11/28 05:32:12;;;;;;;4.03;2.80;;;;;;;3.68;100.00;98452.34;4986581;28;20033;-66
2022/11/28 05:34:38;;;;;;;7.00;3.25;;;;;;;3.62;100.00;98450.34;4992741;28;20031;-66
2022/11/28 05:37:04;;;;;;;5.55;3.28;;;;;;;3.61;100.00;98456.69;4993542;28;20029;-66
2022/11/28 05:39:30;;;;;;;4.68;2.90;;;;;;;3.58;100.00;98450.84;5005697;28;20116;-66
2022/11/28 05:41:56;;;;;;;5.50;3.17;;;;;;;3.51;100.00;98458.69;5005246;28;20031;-66
2022/11/28 05:44:23;;;;;;;6.43;3.35;;;;;;;3.48;100.00;98464.38;4992614;28;20474;-66
2022/11/28 05:46:48;;;;;;;7.35;3.55;;;;;;;3.45;100.00;98464.72;4997961;28;20058;-66
2022/11/28 05:49:13;;;;;;;6.43;3.22;;;;;;;3.46;100.00;98469.06;4985612;28;20058;-66
2022/11/28 05:51:39;;;;;;;5.57;3.30;;;;;;;3.46;100.00;98467.22;4991485;28;20069;-67
2022/11/28 05:54:04;;;;;;;8.30;4.03;;;;;;;3.51;100.00;98475.59;4986003;28;20093;-66
2022/11/28 05:56:30;;;;;;;6.20;3.45;;;;;;;3.48;100.00;98475.94;4994825;28;20062;-66
2022/11/28 05:58:55;;;;;;;6.95;3.42;;;;;;;3.43;100.00;98475.59;4984291;28;20034;-67
2022/11/28 06:01:24;;;;;;;6.30;3.92;;;;;;;3.43;100.00;98466.72;4990471;28;20053;-67
2022/11/28 06:03:50;;;;;;;6.43;3.28;;;;;;;3.43;100.00;98485.44;4986376;28;20733;-66
2022/11/28 06:06:20;;;;;;;5.97;3.13;;;;;;;3.46;100.00;98469.91;4988325;28;20042;-66
2022/11/28 06:08:48;;;;;;;7.88;4.18;;;;;;;3.45;100.00;98470.06;4989751;28;20030;-66
2022/11/28 06:11:14;;;;;;;6.47;3.38;;;;;;;3.39;100.00;98468.88;4990530;28;20476;-66
2022/11/28 06:13:41;;;;;;;5.75;3.58;;;;;;;3.32;100.00;98475.06;4989245;28;20430;-68
2022/11/28 06:16:23;;;;;;;6.88;3.67;;;;;;;3.28;100.00;98472.72;4989788;28;20046;-66
2022/11/28 06:19:00;;;;;;;6.45;4.00;;;;;;;3.29;100.00;98476.22;4989880;28;20080;-66
2022/11/28 06:21:27;;;;;;;6.40;4.28;;;;;;;3.24;100.00;98466.00;4990066;28;20390;-64
2022/11/28 06:23:53;;;;;;;7.28;3.50;;;;;;;3.22;100.00;98472.53;4984527;28;20038;-66
2022/11/28 06:26:21;;;;;;;6.22;3.83;;;;;;;3.21;100.00;98478.88;4989673;28;20038;-66
2022/11/28 06:28:47;;;;;;;7.72;4.32;;;;;;;3.21;100.00;98477.03;4988534;28;20038;-67
2022/11/28 06:31:16;;;;;;;8.02;4.38;;;;;;;3.17;100.00;98477.53;4990129;28;20097;-66
2022/11/28 06:33:41;;;;;;;13.18;4.60;;;;;;;3.16;100.00;98479.38;4990022;28;20037;-67
2022/11/28 06:36:08;;;;;;;13.10;4.00;;;;;;;3.15;100.00;98488.41;4993670;28;20030;-67
2022/11/28 06:38:34;;;;;;;8.02;4.05;;;;;;;3.13;100.00;98482.38;4987752;28;20078;-66
2022/11/28 06:41:03;;;;;;;7.22;4.13;;;;;;;3.08;100.00;98477.53;4991842;28;20046;-66
2022/11/28 06:43:29;;;;;;;;;;;;;;;3.15;100.00;98480.38;5002111;28;20467;-67
2022/11/28 06:45:55;;;;;;;9.65;4.97;;;;;;;3.12;100.00;98491.41;4984721;28;19921;-67
2022/11/28 06:48:21;;;;;;;6.97;4.25;;;;;;;3.12;100.00;98479.84;4987520;28;20026;-67
2022/11/28 06:50:47;;;;;;;8.55;4.80;;;;;;;3.13;100.00;98479.72;4985634;28;20386;-67
2022/11/28 06:53:12;;;;;;;11.00;4.85;;;;;;;3.11;100.00;98484.38;4987697;28;20022;-67
2022/11/28 06:55:38;;;;;;;7.85;4.47;;;;;;;3.11;100.00;98480.88;4989592;28;20027;-66
2022/11/28 06:58:03;;;;;;;7.10;3.88;;;;;;;3.10;100.00;98484.56;4991300;28;20030;-66
2022/11/28 07:00:29;;;;;;;7.65;4.63;;;;;;;3.10;100.00;98480.03;4987790;28;20387;-68
2022/11/28 07:02:54;;;;;;;9.73;4.60;;;;;;;3.08;100.00;98484.72;4992293;28;20026;-67
2022/11/28 07:05:21;;;;;;;7.95;4.68;;;;;;;3.05;100.00;98482.38;4978575;28;20034;-67
2022/11/28 07:07:47;;;;;;;9.55;4.88;;;;;;;3.09;100.00;98489.03;4990010;28;20030;-68
2022/11/28 07:10:13;;;;;;;10.68;4.65;;;;;;;3.08;100.00;98479.34;4987151;28;20459;-67
2022/11/28 07:12:39;;;;;;;9.55;5.07;;;;;;;3.08;100.00;98479.34;4991517;28;20033;-67
2022/11/28 07:15:08;;;;;;;12.07;6.15;;;;;;;3.11;100.00;98479.03;4992149;28;20064;-67
2022/11/28 07:17:34;;;;;;;8.57;4.95;;;;;;;3.15;100.00;98483.06;4988256;28;20133;-67
2022/11/28 07:19:59;;;;;;;10.27;5.53;;;;;;;3.15;100.00;98483.06;4988774;28;20391;-67
2022/11/28 07:22:25;;;;;;;15.35;5.40;;;;;;;3.22;100.00;98472.53;4988966;28;20029;-67
2022/11/28 07:24:51;;;;;;;9.90;5.22;;;;;;;3.26;100.00;98482.72;4986724;28;20061;-67
2022/11/28 07:27:16;;;;;;;7.97;4.63;;;;;;;3.29;100.00;98477.06;4991178;28;20054;-68
2022/11/28 07:29:42;;;;;;;10.02;4.78;;;;;;;3.37;100.00;98480.75;4996351;28;20065;-67
2022/11/28 07:32:08;;;;;;;10.57;4.40;;;;;;;3.46;100.00;98485.94;4998904;28;20058;-67
2022/11/28 07:34:34;;;;;;;6.95;4.00;;;;;;;3.45;100.00;98478.91;4995152;28;20109;-67
2022/11/28 07:36:59;;;;;;;10.50;4.80;;;;;;;3.44;100.00;98487.94;4983929;28;20161;-67
2022/11/28 07:39:25;;;;;;;7.38;4.30;;;;;;;3.45;100.00;98499.47;4988850;28;20045;-66
2022/11/28 07:41:51;;;;;;;8.02;4.10;;;;;;;3.54;100.00;98497.63;4994785;28;20029;-66
2022/11/28 07:44:16;;;;;;;7.50;4.10;;;;;;;3.55;100.00;98502.81;5000804;28;20068;-67
2022/11/28 07:46:44;;;;;;;17.08;3.78;;;;;;;3.46;100.00;98506.50;4991982;28;20065;-67
2022/11/28 07:49:10;;;;;;;6.18;3.80;;;;;;;3.48;100.00;98510.69;5002033;28;20116;-67
2022/11/28 07:51:35;;;;;;;8.35;3.75;;;;;;;3.47;100.00;98516.19;4984997;28;20023;-66
2022/11/28 07:54:02;;;;;;;6.75;3.40;;;;;;;3.53;100.00;98515.53;4993362;28;20073;-66
2022/11/28 07:56:30;;;;;;;13.57;4.85;;;;;;;3.57;100.00;98524.06;4993036;28;20509;-66
2022/11/28 07:58:55;;;;;;;6.03;3.63;;;;;;;3.64;100.00;98517.91;4991663;28;20034;-67
2022/11/28 08:01:23;;;;;;;7.63;4.15;;;;;;;3.74;100.00;98507.00;4993171;28;20072;-67
2022/11/28 08:03:49;;;;;;;11.13;4.43;;;;;;;3.84;100.00;98506.84;4993411;28;20034;-67
2022/11/28 08:06:17;;;;;;;8.63;4.43;;;;;;;3.98;100.00;98498.13;5005387;28;20030;-67
2022/11/28 08:08:45;;;;;;;8.57;4.07;;;;;;;4.05;100.00;98499.13;5007315;28;20065;-67
2022/11/28 08:11:12;;;;;;;9.95;4.75;;;;;;;4.08;100.00;98496.13;4993031;28;20033;-67
2022/11/28 08:13:39;;;;;;;8.32;4.88;;;;;;;4.07;100.00;98496.31;4991485;28;20045;-67
2022/11/28 08:16:13;;;;;;;10.10;5.50;;;;;;;4.11;100.00;98481.56;4989314;28;20022;-67
2022/11/28 08:18:38;;;;;;;13.00;5.97;;;;;;;4.13;100.00;98483.06;4988023;28;20026;-67
2022/11/28 08:21:16;;;;;;;12.13;6.43;;;;;;;4.21;100.00;98476.84;4992920;28;20026;-67
2022/11/28 08:23:44;;;;;;;14.43;7.38;;;;;;;4.28;100.00;98483.19;4993510;28;20077;-67
2022/11/28 08:26:12;;;;;;;14.48;6.35;;;;;;;4.33;100.00;98475.50;4996827;28;20031;-67
2022/11/28 08:28:38;;;;;;;9.63;5.43;;;;;;;4.47;100.00;98478.47;4989199;28;20045;-66
2022/11/28 08:31:09;;;;;;;14.57;6.97;;;;;;;4.55;100.00;98481.09;4994256;28;20026;-67
2022/11/28 08:33:35;;;;;;;26.70;11.85;;;;;;;4.71;100.00;98459.59;4990776;28;20031;-66
2022/11/28 08:36:06;;;;;;;17.75;7.80;;;;;;;4.77;100.00;98485.72;4996005;28;20019;-67
2022/11/28 08:38:31;;;;;;;18.70;8.52;;;;;;;4.86;100.00;98477.66;5005300;28;20513;-67
2022/11/28 08:41:05;;;;;;;41.60;15.93;;;;;;;4.82;100.00;98479.81;4985260;28;20026;-66
2022/11/28 08:43:32;;;;;;;24.75;11.65;;;;;;;4.83;100.00;98476.16;5002938;28;20117;-67
2022/11/28 08:45:57;;;;;;;85.15;27.77;;;;;;;4.90;100.00;98478.94;4981521;28;20369;-67
2022/11/28 08:48:22;;;;;;;67.38;26.75;;;;;;;4.93;100.00;98484.81;4991684;28;20034;-67
2022/11/28 08:50:49;;;;;;;37.38;17.27;;;;;;;4.92;100.00;98483.13;5005119;28;20052;-67
2022/11/28 08:53:14;;;;;;;26.00;13.48;;;;;;;5.08;100.00;98484.06;4992565;28;20038;-67
2022/11/28 08:55:41;;;;;;;25.80;12.88;;;;;;;5.12;100.00;98483.53;4999890;28;20431;-67
2022/11/28 08:58:06;;;;;;;26.48;9.90;;;;;;;5.24;100.00;98487.50;4994105;28;20027;-67
2022/11/28 09:00:32;;;;;;;16.48;7.57;;;;;;;5.25;100.00;98488.31;4988313;28;20376;-67
2022/11/28 09:02:57;;;;;;;21.48;9.57;;;;;;;5.43;100.00;98488.88;4991194;28;20022;-67
2022/11/28 09:05:23;;;;;;;23.67;11.30;;;;;;;5.55;100.00;98473.19;5002229;28;20057;-66
2022/11/28 09:07:48;;;;;;;12.40;6.68;;;;;;;5.70;100.00;98471.38;4993038;28;20022;-67
2022/11/28 09:10:14;;;;;;;12.75;7.82;;;;;;;5.75;100.00;98470.84;4981729;28;20030;-67
2022/11/28 09:12:39;;;;;;;10.98;5.95;;;;;;;5.71;100.00;98465.03;5002582;28;20551;-67
2022/11/28 09:15:05;;;;;;;11.05;6.55;;;;;;;5.77;100.00;98449.22;4989127;28;20394;-66
2022/11/28 09:17:31;;;;;;;20.98;11.90;;;;;;;5.74;100.00;98466.50;4983259;28;20449;-67
2022/11/28 09:19:56;;;;;;;18.98;10.20;;;;;;;5.70;100.00;98460.66;5002394;28;20113;-67
2022/11/28 09:22:22;;;;;;;17.88;7.50;;;;;;;5.86;100.00;98480.31;4984014;28;20026;-67
2022/11/28 09:24:47;;;;;;;10.13;5.32;;;;;;;5.86;100.00;98483.84;4990976;28;20061;-66
2022/11/28 09:27:13;;;;;;;13.63;5.10;;;;;;;5.87;100.00;98482.84;4994980;28;20030;-66
2022/11/28 09:29:39;;;;;;;11.98;5.32;;;;;;;5.97;100.00;98481.75;4988929;28;20029;-66
2022/11/28 09:32:04;;;;;;;9.55;5.40;;;;;;;6.00;100.00;98493.00;4987894;28;20030;-66
2022/11/28 09:34:30;;;;;;;7.65;4.57;;;;;;;6.03;100.00;98491.78;4992269;28;20111;-66
2022/11/28 09:36:55;;;;;;;7.43;4.63;;;;;;;6.06;100.00;98486.06;4997682;28;20026;-67
2022/11/28 09:39:21;;;;;;;6.47;3.72;;;;;;;6.11;100.00;98486.34;4988240;28;20113;-66
2022/11/28 09:42:02;;;;;;;9.13;4.78;;;;;;;6.08;100.00;98484.03;4990859;28;20030;-66
2022/11/28 09:44:46;;;;;;;8.57;4.40;;;;;;;6.08;100.00;98482.16;4992379;28;20064;-66
2022/11/28 09:47:26;;;;;;;9.32;5.60;;;;;;;6.09;100.00;98481.16;4986573;28;20131;-66
2022/11/28 09:49:58;;;;;;;6.38;4.72;;;;;;;6.14;100.00;98472.53;5005083;28;20040;-66
2022/11/28 09:52:27;;;;;;;7.20;4.20;;;;;;;6.17;100.00;98466.81;4987435;28;20438;-67
2022/11/28 09:54:58;;;;;;;11.75;4.22;;;;;;;6.20;100.00;98468.28;4992819;28;20069;-66
2022/11/28 09:57:45;;;;;;;6.07;3.40;;;;;;;6.43;100.00;98468.22;4999207;28;20501;-67
2022/11/28 10:00:21;;;;;;;9.25;4.70;;;;;;;6.50;100.00;98483.41;4987627;28;20763;-67
2022/11/28 10:02:49;;;;;;;7.88;4.53;;;;;;;6.62;100.00;98481.09;4986841;28;20037;-66
2022/11/28 10:05:36;;;;;;;10.10;4.70;;;;;;;6.53;100.00;98490.28;4982364;28;20081;-67
2022/11/28 10:08:34;;;;;;;9.32;4.72;;;;;;;6.56;100.00;98497.97;4992515;28;20037;-67
2022/11/28 10:11:05;;;;;;;8.68;4.63;;;;;;;6.66;100.00;98493.16;4984384;28;20034;-67
2022/11/28 10:13:49;;;;;;;8.45;4.43;;;;;;;6.68;100.00;98492.94;5003700;28;20108;-67
2022/11/28 10:19:33;;;;;;;30.77;5.95;;;;;;;7.07;100.00;98486.41;5116194;22;20058;-61
2022/11/28 10:22:03;;;;;;;52.17;7.95;;;;;;;7.10;100.00;98478.81;5001296;28;20034;-61
2022/11/28 10:24:45;;;;;;;36.90;6.63;;;;;;;7.15;100.00;98459.38;4992568;28;20027;-61
2022/11/28 10:27:13;;;;;;;8.80;4.72;;;;;;;7.31;100.00;98467.25;4987282;28;20413;-61
2022/11/28 10:30:22;;;;;;;7.55;4.82;;;;;;;7.42;100.00;98465.91;4981030;28;20019;-61
2022/11/28 10:33:00;;;;;;;17.17;3.78;;;;;;;7.24;100.00;98461.78;4949340;28;20065;-61
2022/11/28 10:35:52;;;;;;;13.10;4.15;;;;;;;7.44;100.00;98453.06;4971117;28;20026;-61
2022/11/28 10:38:24;;;;;;;9.93;4.95;;;;;;;7.30;100.00;98446.72;4970747;28;20497;-61
2022/11/28 10:41:11;;;;;;;7.63;3.70;;;;;;;7.21;100.00;98442.50;4971947;28;20030;-61
2022/11/28 10:44:01;;;;;;;6.25;3.85;;;;;;;7.17;100.00;98455.50;4982714;28;20031;-61
2022/11/28 10:46:48;;;;;;;13.90;6.93;;;;;;;7.28;100.00;98469.47;4976242;28;20057;-61
2022/11/28 10:49:39;;;;;;;16.02;6.88;;;;;;;7.32;100.00;98471.59;4976077;28;20031;-61
2022/11/28 10:52:30;;;;;;;16.67;6.97;;;;;;;7.54;100.00;98480.50;4981288;28;20027;-61
2022/11/28 10:55:20;;;;;;;11.73;5.47;;;;;;;7.59;100.00;98472.69;4969898;28;20111;-61
2022/11/28 10:58:06;;;;;;;14.43;5.90;;;;;;;7.73;100.00;98473.66;4978329;28;20359;-61
2022/11/28 11:00:34;;;;;;;14.93;4.68;;;;;;;7.95;100.00;98470.94;4973683;28;20038;-61
2022/11/28 11:03:01;;;;;;;7.80;4.55;;;;;;;8.00;100.00;98469.34;4971330;28;20378;-61
2022/11/28 11:05:31;;;;;;;6.78;3.58;;;;;;;8.11;100.00;98471.47;4968321;28;20027;-61
2022/11/28 11:08:01;;;;;;;8.23;4.30;;;;;;;8.38;100.00;98458.19;4967875;28;20038;-61
2022/11/28 11:10:38;;;;;;;10.05;4.80;;;;;;;8.77;100.00;98454.91;4973856;28;20495;-61
2022/11/28 11:13:22;;;;;;;12.88;5.53;;;;;;;8.80;100.00;98464.47;4976762;28;20121;-61
2022/11/28 11:15:58;;;;;;;10.23;4.68;;;;;;;9.02;100.00;98456.28;4982160;28;20474;-61
2022/11/28 11:18:25;;;;;;;7.63;4.28;;;;;;;8.96;100.00;98450.66;4990252;28;20076;-61
2022/11/28 11:20:51;;;;;;;4.53;3.15;;;;;;;9.09;100.00;98451.72;4969231;28;20030;-61
2022/11/28 11:23:20;;;;;;;11.65;4.80;;;;;;;8.98;100.00;98448.56;4966754;28;20031;-61
2022/11/28 11:25:50;;;;;;;11.18;4.97;;;;;;;9.16;100.00;98452.59;4979798;28;20057;-61
2022/11/28 11:28:25;;;;;;;9.80;4.03;;;;;;;9.40;100.00;98453.88;4972030;28;20038;-61
2022/11/28 11:31:01;;;;;;;10.10;4.50;;;;;;;9.48;100.00;98445.59;4981792;28;20030;-61
2022/11/28 11:33:33;;;;;;;9.35;3.83;;;;;;;9.50;100.00;98445.41;4972472;28;20427;-61
2022/11/28 11:36:01;;;;;;;10.80;4.00;;;;;;;9.46;100.00;98449.53;4967436;28;20026;-61
2022/11/28 11:38:33;;;;;;;6.95;3.88;;;;;;;9.31;100.00;98447.84;4977609;28;20101;-60
2022/11/28 11:41:28;;;;;;;5.60;3.70;;;;;;;9.28;100.00;98433.94;4979515;28;20029;-61
2022/11/28 11:43:54;;;;;;;12.52;6.40;;;;;;;9.32;100.00;98438.72;4972422;28;20019;-67
2022/11/28 11:46:20;;;;;;;9.85;4.93;;;;;;;9.46;100.00;98436.88;4967823;28;20113;-67
2022/11/28 11:48:51;;;;;;;9.43;5.47;;;;;;;9.41;100.00;98425.88;4984092;28;20109;-68
2022/11/28 11:51:22;;;;;;;10.23;4.88;;;;;;;9.47;100.00;98429.59;4978616;28;20039;-68
2022/11/28 11:53:47;;;;;;;15.35;6.80;;;;;;;9.49;100.00;98425.66;4984203;28;20027;-68
2022/11/28 11:56:13;;;;;;;12.73;6.00;;;;;;;9.62;100.00;98430.25;4989991;28;20095;-69